South Platte, Nebraska
Current Conditions -  °F | °C
As of 2:53 PM on Sunday 23 Nov 2014 (Local Time) from KHSI Reporting Station
Clear Clear  
Wind Chill: 36°   Ceiling: Unl
Heat Index: 44°   Visibility: 10mi
Dew Point: 30°   Wind: 20mph
Humidity: 58%   Direction: 350°N
Pressure: 29.56"   Gusts: 26mph
Location:  40.7545°N, 98.3738°W
Report Text: KHSI 232053Z AUTO 35017G23KT 10SM CLR 07/M01 A2956 RMK AO2 PK WND 35030/2002 SLP011 60000 T00671011 55008
Loading
Personal Weather Stations






























Interactive Weather Map New forecast layout! Learn more

10-Day Weather Forecast

Advertisements
Track Severe Weather on mobile